Time;durP1;ratioP1;P1;durP2;ratioP2;P2;SDS_P1;SDS_P2;PMS_P1;PMS_P2;Temp;Humidity;BMP_temperature;BMP_pressure;BME280_temperature;BME280_humidity;BME280_pressure;Samples;Min_cycle;Max_cycle;Signal;HPM_P1;HPM_P2
2022/05/10 00:05:10;;;;;;;7.80;4.47;;;21.30;46.60;;;;;;20921639;28;20098;-70
2022/05/10 00:15:12;;;;;;;8.03;3.73;;;21.20;47.60;;;;;;20921548;28;20185;-70
2022/05/10 00:25:19;;;;;;;11.37;3.80;;;21.00;48.10;;;;;;20920216;28;20056;-71
2022/05/10 00:35:28;;;;;;;6.82;3.83;;;20.80;48.50;;;;;;20920736;28;20045;-71
2022/05/10 00:46:08;;;;;;;9.00;3.58;;;20.70;48.50;;;;;;20918709;28;20095;-71
2022/05/10 00:56:21;;;;;;;7.72;3.20;;;20.70;48.10;;;;;;20918721;28;20109;-71
2022/05/10 01:06:27;;;;;;;6.00;4.00;;;20.40;48.30;;;;;;20918520;28;20053;-72
2022/05/10 01:16:29;;;;;;;8.57;3.58;;;20.30;48.30;;;;;;20915655;28;20114;-73
2022/05/10 01:26:50;;;;;;;4.93;3.30;;;20.10;48.30;;;;;;20916693;28;20083;-70
2022/05/10 01:37:04;;;;;;;4.55;3.35;;;20.10;48.20;;;;;;20915922;28;20044;-71
2022/05/10 01:47:15;;;;;;;5.18;3.42;;;19.90;48.20;;;;;;20915034;28;20102;-71
2022/05/10 01:57:24;;;;;;;5.55;3.08;;;19.80;48.10;;;;;;20913867;28;20045;-71
2022/05/10 02:07:32;;;;;;;4.82;2.70;;;19.60;47.60;;;;;;20912982;28;20052;-71
2022/05/10 02:17:40;;;;;;;5.20;4.07;;;19.50;47.30;;;;;;20895106;28;20045;-65
2022/05/10 02:27:51;;;;;;;4.70;2.70;;;19.50;47.90;;;;;;20927486;28;20072;-72
2022/05/10 02:37:57;;;;;;;4.90;3.00;;;19.30;47.90;;;;;;20939563;28;20127;-70
2022/05/10 02:48:02;;;;;;;3.83;2.70;;;19.20;47.40;;;;;;20922201;28;20044;-70
2022/05/10 02:58:43;;;;;;;4.90;2.60;;;19.20;47.30;;;;;;20939461;28;20110;-70
2022/05/10 03:08:45;;;;;;;7.75;3.17;;;19.20;47.00;;;;;;20683426;28;20066;-70
2022/05/10 03:19:07;;;;;;;7.15;3.28;;;19.10;47.70;;;;;;20683641;28;20169;-71
2022/05/10 03:29:29;;;;;;;4.90;3.17;;;19.10;47.90;;;;;;20683642;28;20058;-72
2022/05/10 03:39:40;;;;;;;3.90;2.80;;;18.90;47.90;;;;;;20764523;28;20073;-69
2022/05/10 03:49:45;;;;;;;7.50;3.37;;;18.90;47.60;;;;;;20922902;28;20052;-68
2022/05/10 03:59:49;;;;;;;6.97;3.70;;;18.80;47.50;;;;;;20922495;28;20078;-71
2022/05/10 04:09:53;;;;;;;5.07;3.35;;;18.40;50.30;;;;;;20921657;28;20053;-72
2022/05/10 04:19:56;;;;;;;4.03;3.10;;;18.20;50.80;;;;;;20921463;28;20079;-69
2022/05/10 04:29:59;;;;;;;5.38;3.63;;;17.90;51.40;;;;;;20903433;28;20459;-73
2022/05/10 04:50:23;;;;;;;4.95;3.25;;;17.50;51.60;;;;;;20918926;28;20409;-71
2022/05/10 05:00:26;;;;;;;7.18;3.30;;;17.30;52.80;;;;;;20900177;28;20053;-71
2022/05/10 05:10:28;;;;;;;5.68;3.30;;;17.20;52.90;;;;;;20918142;28;20083;-69
2022/05/10 05:20:31;;;;;;;5.00;3.25;;;17.10;52.40;;;;;;20917908;28;20048;-72
2022/05/10 05:30:34;;;;;;;6.30;3.60;;;17.00;53.10;;;;;;20916624;28;20041;-73
2022/05/10 05:40:37;;;;;;;4.82;2.97;;;16.90;53.10;;;;;;20916377;28;20495;-72
2022/05/10 05:50:39;;;;;;;9.18;3.97;;;17.00;53.10;;;;;;20915370;28;20044;-71
2022/05/10 06:00:41;;;;;;;7.05;2.88;;;17.10;52.60;;;;;;20912801;28;20135;-71
2022/05/10 06:10:44;;;;;;;8.20;3.80;;;17.00;52.10;;;;;;20895867;28;20049;-71
2022/05/10 06:20:45;;;;;;;9.35;4.10;;;17.00;52.50;;;;;;20912891;28;20056;-72
2022/05/10 06:30:48;;;;;;;9.38;4.30;;;17.00;52.50;;;;;;20912275;28;20049;-71
2022/05/10 06:40:49;;;;;;;12.48;4.10;;;17.20;52.00;;;;;;20911230;28;20080;-70
2022/05/10 06:50:51;;;;;;;11.68;4.78;;;17.90;51.10;;;;;;20911435;28;20208;-71
2022/05/10 07:00:53;;;;;;;8.43;3.40;;;18.70;49.10;;;;;;20910153;28;20048;-70
2022/05/10 07:10:55;;;;;;;9.35;3.65;;;19.30;47.40;;;;;;20912567;28;20080;-71
2022/05/10 07:20:57;;;;;;;8.00;3.83;;;19.80;46.70;;;;;;20925260;28;20060;-71
2022/05/10 07:31:00;;;;;;;5.60;3.47;;;20.20;46.40;;;;;;20907681;28;20393;-71
2022/05/10 07:41:02;;;;;;;11.20;3.72;;;20.70;45.20;;;;;;20924114;28;20074;-70
2022/05/10 07:51:04;;;;;;;7.03;3.50;;;21.00;44.20;;;;;;20923557;28;20068;-70
2022/05/10 08:01:07;;;;;;;;;;;21.20;43.30;;;;;;20923986;28;20053;-70
2022/05/10 08:11:10;;;;;;;9.73;3.80;;;21.40;42.70;;;;;;20923644;28;19921;-68
2022/05/10 08:21:13;;;;;;;3.57;2.83;;;21.70;42.00;;;;;;20921095;28;20460;-62
2022/05/10 08:31:17;;;;;;;8.75;2.67;;;21.80;42.60;;;;;;20920897;28;20049;-68
2022/05/10 08:41:24;;;;;;;7.27;3.17;;;22.30;39.30;;;;;;20919845;28;20056;-69
2022/05/10 08:51:25;;;;;;;5.30;2.50;;;22.50;38.30;;;;;;20919262;28;20129;-70
2022/05/10 09:01:32;;;;;;;6.55;2.40;;;22.50;36.40;;;;;;20918553;28;20056;-72
2022/05/10 09:12:05;;;;;;;3.45;2.28;;;22.70;36.10;;;;;;20917965;28;20508;-70
2022/05/10 09:22:35;;;;;;;4.50;2.23;;;23.00;36.00;;;;;;20908555;28;20061;-69
2022/05/10 09:43:33;;;;;;;5.28;2.63;;;23.20;36.00;;;;;;20983734;28;20049;-64
2022/05/10 09:53:35;;;;;;;12.15;4.68;;;23.20;35.70;;;;;;20954721;28;20045;-60
2022/05/10 10:03:39;;;;;;;6.60;2.45;;;23.50;37.60;;;;;;20992013;28;20171;-68
2022/05/10 10:13:41;;;;;;;6.53;2.72;;;23.60;38.30;;;;;;20981252;28;20414;-69
2022/05/10 10:23:57;;;;;;;8.25;2.80;;;23.60;37.30;;;;;;20992192;28;20052;-70
2022/05/10 10:34:20;;;;;;;11.90;3.53;;;23.90;38.00;;;;;;20994888;28;20041;-69
2022/05/10 10:44:25;;;;;;;7.43;3.83;;;24.00;37.10;;;;;;20995719;28;20059;-62
2022/05/10 10:54:30;;;;;;;10.93;2.80;;;24.10;36.50;;;;;;21007864;28;20048;-66
2022/05/10 11:05:11;;;;;;;8.63;3.25;;;24.10;37.80;;;;;;21007664;28;20050;-65
2022/05/10 11:15:51;;;;;;;8.77;2.70;;;24.50;37.20;;;;;;21006783;28;20058;-71
2022/05/10 11:26:09;;;;;;;8.07;3.05;;;24.60;37.20;;;;;;20635332;28;20046;-75
2022/05/10 11:36:16;;;;;;;5.53;2.90;;;24.60;37.40;;;;;;20690246;28;20167;-62
2022/05/10 11:46:31;;;;;;;8.90;4.40;;;24.70;36.50;;;;;;20679576;28;20143;-66
2022/05/10 11:56:39;;;;;;;10.60;3.35;;;24.70;36.90;;;;;;20778876;28;20095;-66
2022/05/10 12:06:43;;;;;;;9.32;3.67;;;25.10;36.20;;;;;;21005215;28;20489;-63
2022/05/10 12:27:10;;;;;;;6.68;2.55;;;25.60;34.70;;;;;;21004600;28;20086;-63
2022/05/10 12:37:30;;;;;;;7.35;2.35;;;25.60;34.30;;;;;;21003816;28;20496;-75
2022/05/10 12:47:52;;;;;;;9.40;2.97;;;25.80;33.80;;;;;;21002869;28;20140;-76
2022/05/10 12:58:10;;;;;;;6.10;2.40;;;26.00;33.40;;;;;;21002902;28;20094;-78
2022/05/10 13:08:53;;;;;;;8.02;2.70;;;26.10;33.10;;;;;;21013719;28;20689;-73
2022/05/10 13:18:54;;;;;;;6.38;2.75;;;26.40;33.50;;;;;;20621048;28;20129;-77
2022/05/10 13:29:00;;;;;;;10.27;2.30;;;26.50;33.50;;;;;;20583567;28;20090;-75
2022/05/10 13:39:02;;;;;;;6.85;2.67;;;26.70;33.10;;;;;;20584320;28;20047;-70
2022/05/10 13:49:13;;;;;;;6.25;2.58;;;27.00;32.10;;;;;;20925240;28;20053;-75
2022/05/10 13:59:29;;;;;;;5.75;2.42;;;27.10;32.50;;;;;;20999397;28;20044;-74
2022/05/10 14:09:40;;;;;;;7.55;2.60;;;27.50;31.50;;;;;;20996752;28;20523;-72
2022/05/10 14:19:45;;;;;;;5.50;3.43;;;27.20;31.30;;;;;;20996642;28;20496;-72
2022/05/10 14:29:50;;;;;;;6.25;2.75;;;27.60;31.10;;;;;;20996004;28;20095;-70
2022/05/10 14:39:53;;;;;;;6.22;2.53;;;27.60;31.60;;;;;;20996571;28;20091;-73
2022/05/10 14:49:54;;;;;;;4.72;2.95;;;27.60;31.60;;;;;;20995709;28;20049;-73
2022/05/10 14:59:58;;;;;;;;;;;27.80;30.70;;;;;;20996019;28;20045;-73
2022/05/10 15:10:01;;;;;;;3.97;2.65;;;27.60;31.10;;;;;;20994438;28;20442;-75
2022/05/10 15:20:03;;;;;;;4.93;2.13;;;28.00;31.20;;;;;;20994551;28;20071;-73
2022/05/10 15:30:07;;;;;;;6.00;2.53;;;28.10;30.20;;;;;;20993906;28;20110;-72
2022/05/10 15:40:10;;;;;;;3.40;2.55;;;28.30;30.50;;;;;;21006815;28;20040;-71
2022/05/10 15:50:32;;;;;;;4.43;2.33;;;28.30;30.60;;;;;;21006007;28;20136;-72
2022/05/10 16:00:34;;;;;;;7.85;3.85;;;28.30;30.40;;;;;;21006295;28;20044;-71
2022/05/10 16:10:37;;;;;;;3.65;2.40;;;28.10;30.50;;;;;;20988982;28;20059;-71
2022/05/10 16:20:38;;;;;;;7.07;2.78;;;28.10;30.00;;;;;;21004309;28;20036;-60
2022/05/10 16:30:39;;;;;;;;;;;28.20;30.00;;;;;;21003410;28;20040;-60
2022/05/10 16:40:41;;;;;;;5.60;2.40;;;28.50;29.50;;;;;;21003209;28;20296;-60
2022/05/10 16:50:42;;;;;;;4.60;2.70;;;28.30;29.80;;;;;;21001890;28;20413;-61
2022/05/10 17:00:43;;;;;;;;;;;28.20;29.60;;;;;;20994776;28;20094;-60
2022/05/10 17:10:45;;;;;;;4.20;2.60;;;28.30;29.10;;;;;;20978482;28;20019;-61
2022/05/10 17:20:46;;;;;;;6.03;2.75;;;28.10;29.80;;;;;;20997274;28;20067;-61
2022/05/10 17:30:48;;;;;;;5.50;2.67;;;28.20;30.20;;;;;;20996909;28;20045;-57
2022/05/10 17:40:49;;;;;;;;;;;28.10;29.70;;;;;;20996133;28;20044;-66
2022/05/10 17:50:50;;;;;;;4.27;3.10;;;28.10;29.70;;;;;;20996926;28;19920;-67
2022/05/10 18:00:52;;;;;;;4.18;2.63;;;28.00;29.90;;;;;;20996723;28;20474;-67
2022/05/10 18:10:56;;;;;;;5.00;3.03;;;27.90;29.90;;;;;;20995018;28;20551;-60
2022/05/10 18:20:59;;;;;;;7.50;3.05;;;27.90;30.20;;;;;;20995075;28;20053;-60
2022/05/10 18:31:01;;;;;;;5.88;2.35;;;27.70;29.80;;;;;;20996376;28;20454;-60
2022/05/10 18:41:03;;;;;;;5.13;2.30;;;27.60;29.60;;;;;;20995910;28;20443;-65
2022/05/10 18:51:08;;;;;;;4.78;2.33;;;27.60;29.40;;;;;;20999094;28;20071;-62
2022/05/10 19:01:10;;;;;;;6.43;2.42;;;27.40;29.70;;;;;;20943355;28;20132;-58
2022/05/10 19:11:11;;;;;;;6.15;3.28;;;27.00;30.50;;;;;;21003019;28;20149;-67
2022/05/10 19:21:13;;;;;;;6.70;3.00;;;26.80;30.80;;;;;;21007027;28;20420;-59
2022/05/10 19:31:16;;;;;;;73.90;22.42;;;26.60;31.00;;;;;;21007216;28;20501;-57
2022/05/10 19:41:17;;;;;;;6.40;3.67;;;26.20;31.40;;;;;;21001931;28;20056;-63
2022/05/10 19:51:19;;;;;;;6.72;4.00;;;26.20;31.10;;;;;;20998230;28;20055;-61
2022/05/10 20:11:41;;;;;;;9.35;5.22;;;25.80;32.20;;;;;;21000543;28;20052;-63
2022/05/10 20:21:43;;;;;;;6.63;4.32;;;;;;;;;;21004757;28;20438;-68
2022/05/10 20:31:45;;;;;;;7.75;5.40;;;25.90;31.80;;;;;;21004579;28;20174;-74
2022/05/10 20:41:47;;;;;;;8.73;5.13;;;25.60;32.50;;;;;;21004177;28;20456;-75
2022/05/10 20:51:49;;;;;;;8.38;5.15;;;25.50;32.80;;;;;;20984172;28;20048;-69
2022/05/10 21:01:51;;;;;;;;;;;25.30;32.70;;;;;;21001939;28;20052;-72
2022/05/10 21:11:53;;;;;;;11.77;5.40;;;25.20;32.90;;;;;;20982891;28;19920;-68
2022/05/10 21:21:55;;;;;;;14.85;8.18;;;25.10;33.50;;;;;;20999878;28;20430;-69
2022/05/10 21:31:57;;;;;;;13.50;8.40;;;25.00;34.20;;;;;;20998327;28;20044;-72
2022/05/10 21:41:58;;;;;;;;;;;24.90;34.70;;;;;;20998582;28;20048;-69
2022/05/10 21:52:01;;;;;;;16.95;8.02;;;;;;;;;;20997826;28;20381;-68
2022/05/10 22:02:04;;;;;;;13.67;8.50;;;;;;;;;;20997251;28;20059;-73
2022/05/10 22:12:07;;;;;;;12.65;7.40;;;;;;;;;;20997216;28;20365;-69
2022/05/10 22:22:09;;;;;;;13.43;8.45;;;;;;;;;;20996057;28;20052;-70
2022/05/10 22:32:11;;;;;;;15.87;8.07;;;;;;;;;;20995934;28;20045;-73
2022/05/10 22:42:13;;;;;;;13.10;8.43;;;;;;;;;;21000858;28;20472;-72
2022/05/10 22:52:14;;;;;;;10.80;6.47;;;;;;;;;;21013508;28;20040;-70
2022/05/10 23:02:16;;;;;;;11.17;5.93;;;;;;;;;;21011138;28;20045;-71
2022/05/10 23:12:18;;;;;;;7.90;4.97;;;;;;;;;;20992902;28;20048;-68
2022/05/10 23:22:19;;;;;;;8.90;4.50;;;;;;;;;;21009804;28;20052;-71
2022/05/10 23:32:21;;;;;;;8.87;5.87;;;;;;;;;;21008447;28;20040;-69
2022/05/10 23:42:23;;;;;;;10.48;4.28;;;;;;;;;;20989714;28;20110;-70
2022/05/10 23:52:24;;;;;;;8.25;4.30;;;;;;;;;;21006207;28;20041;-69
